sensor_id;sensor_type;location;lat;lon;timestamp;P1;durP1;ratioP1;P2;durP2;ratioP2
69081;SDS011;56184;51.986;5.760;2023-03-18T00:00:58;4.25;;;2.63;;
69081;SDS011;56184;51.986;5.760;2023-03-18T00:03:32;9.82;;;2.85;;
69081;SDS011;56184;51.986;5.760;2023-03-18T00:06:05;8.45;;;2.75;;
69081;SDS011;56184;51.986;5.760;2023-03-18T00:08:36;7.22;;;2.63;;
69081;SDS011;56184;51.986;5.760;2023-03-18T00:11:03;6.18;;;2.80;;
69081;SDS011;56184;51.986;5.760;2023-03-18T00:13:30;7.78;;;3.67;;
69081;SDS011;56184;51.986;5.760;2023-03-18T00:15:59;8.70;;;3.13;;
69081;SDS011;56184;51.986;5.760;2023-03-18T00:18:26;8.52;;;3.08;;
69081;SDS011;56184;51.986;5.760;2023-03-18T00:20:52;8.35;;;2.90;;
69081;SDS011;56184;51.986;5.760;2023-03-18T00:23:18;9.80;;;3.42;;
69081;SDS011;56184;51.986;5.760;2023-03-18T00:25:45;6.50;;;3.33;;
69081;SDS011;56184;51.986;5.760;2023-03-18T00:28:12;12.05;;;3.25;;
69081;SDS011;56184;51.986;5.760;2023-03-18T00:30:38;9.82;;;3.33;;
69081;SDS011;56184;51.986;5.760;2023-03-18T00:33:06;6.57;;;3.63;;
69081;SDS011;56184;51.986;5.760;2023-03-18T00:35:33;6.38;;;3.63;;
69081;SDS011;56184;51.986;5.760;2023-03-18T00:38:00;10.65;;;3.80;;
69081;SDS011;56184;51.986;5.760;2023-03-18T00:40:28;7.65;;;3.85;;
69081;SDS011;56184;51.986;5.760;2023-03-18T00:43:07;8.60;;;3.75;;
69081;SDS011;56184;51.986;5.760;2023-03-18T00:45:37;6.68;;;4.22;;
69081;SDS011;56184;51.986;5.760;2023-03-18T00:48:04;8.63;;;3.72;;
69081;SDS011;56184;51.986;5.760;2023-03-18T00:50:32;10.55;;;4.03;;
69081;SDS011;56184;51.986;5.760;2023-03-18T00:52:58;11.35;;;4.72;;
69081;SDS011;56184;51.986;5.760;2023-03-18T00:55:24;8.10;;;3.97;;
69081;SDS011;56184;51.986;5.760;2023-03-18T00:57:51;7.50;;;4.90;;
69081;SDS011;56184;51.986;5.760;2023-03-18T01:00:17;8.95;;;4.47;;
69081;SDS011;56184;51.986;5.760;2023-03-18T01:02:44;13.38;;;4.65;;
69081;SDS011;56184;51.986;5.760;2023-03-18T01:05:12;9.93;;;4.10;;
69081;SDS011;56184;51.986;5.760;2023-03-18T01:07:38;5.97;;;3.90;;
69081;SDS011;56184;51.986;5.760;2023-03-18T01:10:04;11.60;;;4.22;;
69081;SDS011;56184;51.986;5.760;2023-03-18T01:12:31;9.82;;;4.10;;
69081;SDS011;56184;51.986;5.760;2023-03-18T01:14:57;5.32;;;3.55;;
69081;SDS011;56184;51.986;5.760;2023-03-18T01:17:23;9.45;;;3.53;;
69081;SDS011;56184;51.986;5.760;2023-03-18T01:19:49;5.93;;;3.65;;
69081;SDS011;56184;51.986;5.760;2023-03-18T01:22:15;7.82;;;3.97;;
69081;SDS011;56184;51.986;5.760;2023-03-18T01:24:41;9.93;;;3.90;;
69081;SDS011;56184;51.986;5.760;2023-03-18T01:27:07;6.43;;;3.70;;
69081;SDS011;56184;51.986;5.760;2023-03-18T01:29:33;12.27;;;4.05;;
69081;SDS011;56184;51.986;5.760;2023-03-18T01:31:59;12.15;;;4.50;;
69081;SDS011;56184;51.986;5.760;2023-03-18T01:34:25;12.93;;;4.50;;
69081;SDS011;56184;51.986;5.760;2023-03-18T01:36:51;13.20;;;4.50;;
69081;SDS011;56184;51.986;5.760;2023-03-18T01:39:18;11.95;;;4.47;;
69081;SDS011;56184;51.986;5.760;2023-03-18T01:41:44;11.40;;;4.40;;
69081;SDS011;56184;51.986;5.760;2023-03-18T01:44:14;8.65;;;4.45;;
69081;SDS011;56184;51.986;5.760;2023-03-18T01:46:42;9.43;;;4.68;;
69081;SDS011;56184;51.986;5.760;2023-03-18T01:49:11;11.00;;;4.65;;
69081;SDS011;56184;51.986;5.760;2023-03-18T01:51:51;9.52;;;4.15;;
69081;SDS011;56184;51.986;5.760;2023-03-18T01:56:48;9.80;;;4.50;;
69081;SDS011;56184;51.986;5.760;2023-03-18T01:59:16;7.38;;;4.45;;
69081;SDS011;56184;51.986;5.760;2023-03-18T02:01:55;6.32;;;4.50;;
69081;SDS011;56184;51.986;5.760;2023-03-18T02:04:40;14.45;;;4.93;;
69081;SDS011;56184;51.986;5.760;2023-03-18T02:07:20;9.65;;;5.13;;
69081;SDS011;56184;51.986;5.760;2023-03-18T02:09:48;9.18;;;4.75;;
69081;SDS011;56184;51.986;5.760;2023-03-18T02:12:18;9.93;;;5.13;;
69081;SDS011;56184;51.986;5.760;2023-03-18T02:14:48;12.00;;;5.68;;
69081;SDS011;56184;51.986;5.760;2023-03-18T02:17:17;11.32;;;5.75;;
69081;SDS011;56184;51.986;5.760;2023-03-18T02:19:50;10.15;;;5.45;;
69081;SDS011;56184;51.986;5.760;2023-03-18T02:22:26;12.32;;;5.40;;
69081;SDS011;56184;51.986;5.760;2023-03-18T02:27:36;12.52;;;6.50;;
69081;SDS011;56184;51.986;5.760;2023-03-18T02:30:06;9.15;;;5.50;;
69081;SDS011;56184;51.986;5.760;2023-03-18T02:32:37;11.70;;;5.20;;
69081;SDS011;56184;51.986;5.760;2023-03-18T02:35:06;9.43;;;5.50;;
69081;SDS011;56184;51.986;5.760;2023-03-18T02:37:35;17.77;;;6.18;;
69081;SDS011;56184;51.986;5.760;2023-03-18T02:42:50;8.88;;;5.60;;
69081;SDS011;56184;51.986;5.760;2023-03-18T02:45:22;14.32;;;5.80;;
69081;SDS011;56184;51.986;5.760;2023-03-18T02:48:14;10.13;;;5.88;;
69081;SDS011;56184;51.986;5.760;2023-03-18T02:50:42;16.23;;;6.60;;
69081;SDS011;56184;51.986;5.760;2023-03-18T02:53:11;14.50;;;6.38;;
69081;SDS011;56184;51.986;5.760;2023-03-18T02:55:37;9.75;;;5.70;;
69081;SDS011;56184;51.986;5.760;2023-03-18T02:58:04;9.57;;;5.95;;
69081;SDS011;56184;51.986;5.760;2023-03-18T03:00:32;11.52;;;5.40;;
69081;SDS011;56184;51.986;5.760;2023-03-18T03:02:57;11.70;;;6.47;;
69081;SDS011;56184;51.986;5.760;2023-03-18T03:05:24;14.55;;;6.70;;
69081;SDS011;56184;51.986;5.760;2023-03-18T03:07:50;11.77;;;6.10;;
69081;SDS011;56184;51.986;5.760;2023-03-18T03:10:16;9.88;;;5.88;;
69081;SDS011;56184;51.986;5.760;2023-03-18T03:12:41;10.55;;;5.88;;
69081;SDS011;56184;51.986;5.760;2023-03-18T03:15:07;13.68;;;6.20;;
69081;SDS011;56184;51.986;5.760;2023-03-18T03:17:33;12.60;;;6.22;;
69081;SDS011;56184;51.986;5.760;2023-03-18T03:19:59;15.90;;;6.80;;
69081;SDS011;56184;51.986;5.760;2023-03-18T03:22:25;13.45;;;7.03;;
69081;SDS011;56184;51.986;5.760;2023-03-18T03:24:51;8.77;;;6.07;;
69081;SDS011;56184;51.986;5.760;2023-03-18T03:27:17;10.93;;;6.60;;
69081;SDS011;56184;51.986;5.760;2023-03-18T03:29:44;12.27;;;6.15;;
69081;SDS011;56184;51.986;5.760;2023-03-18T03:32:10;12.77;;;6.03;;
69081;SDS011;56184;51.986;5.760;2023-03-18T03:34:36;15.63;;;6.38;;
69081;SDS011;56184;51.986;5.760;2023-03-18T03:37:02;13.82;;;6.95;;
69081;SDS011;56184;51.986;5.760;2023-03-18T03:39:28;14.27;;;6.60;;
69081;SDS011;56184;51.986;5.760;2023-03-18T03:41:53;16.92;;;7.18;;
69081;SDS011;56184;51.986;5.760;2023-03-18T03:44:19;12.77;;;7.38;;
69081;SDS011;56184;51.986;5.760;2023-03-18T03:46:45;16.58;;;7.20;;
69081;SDS011;56184;51.986;5.760;2023-03-18T03:49:10;15.95;;;7.70;;
69081;SDS011;56184;51.986;5.760;2023-03-18T03:51:36;11.50;;;7.15;;
69081;SDS011;56184;51.986;5.760;2023-03-18T03:54:02;12.85;;;6.85;;
69081;SDS011;56184;51.986;5.760;2023-03-18T03:56:28;12.10;;;7.10;;
69081;SDS011;56184;51.986;5.760;2023-03-18T03:58:55;19.20;;;8.02;;
69081;SDS011;56184;51.986;5.760;2023-03-18T04:01:20;16.15;;;7.97;;
69081;SDS011;56184;51.986;5.760;2023-03-18T04:03:46;13.93;;;7.55;;
69081;SDS011;56184;51.986;5.760;2023-03-18T04:06:12;11.88;;;7.30;;
69081;SDS011;56184;51.986;5.760;2023-03-18T04:08:38;12.57;;;7.00;;
69081;SDS011;56184;51.986;5.760;2023-03-18T04:11:03;18.27;;;7.30;;
69081;SDS011;56184;51.986;5.760;2023-03-18T04:13:29;13.80;;;7.63;;
69081;SDS011;56184;51.986;5.760;2023-03-18T04:15:55;14.95;;;7.65;;
69081;SDS011;56184;51.986;5.760;2023-03-18T04:18:20;16.38;;;7.88;;
69081;SDS011;56184;51.986;5.760;2023-03-18T04:20:46;15.73;;;7.57;;
69081;SDS011;56184;51.986;5.760;2023-03-18T04:23:12;14.00;;;8.07;;
69081;SDS011;56184;51.986;5.760;2023-03-18T04:25:38;17.08;;;7.57;;
69081;SDS011;56184;51.986;5.760;2023-03-18T04:28:04;18.02;;;8.27;;
69081;SDS011;56184;51.986;5.760;2023-03-18T04:30:30;18.45;;;7.38;;
69081;SDS011;56184;51.986;5.760;2023-03-18T04:32:56;15.80;;;8.15;;
69081;SDS011;56184;51.986;5.760;2023-03-18T04:35:23;16.50;;;8.60;;
69081;SDS011;56184;51.986;5.760;2023-03-18T04:37:49;16.30;;;8.77;;
69081;SDS011;56184;51.986;5.760;2023-03-18T04:40:14;16.30;;;7.63;;
69081;SDS011;56184;51.986;5.760;2023-03-18T04:42:40;13.90;;;8.02;;
69081;SDS011;56184;51.986;5.760;2023-03-18T04:45:06;17.60;;;9.05;;
69081;SDS011;56184;51.986;5.760;2023-03-18T04:47:32;19.17;;;8.98;;
69081;SDS011;56184;51.986;5.760;2023-03-18T04:49:59;18.08;;;8.63;;
69081;SDS011;56184;51.986;5.760;2023-03-18T04:52:25;16.33;;;8.52;;
69081;SDS011;56184;51.986;5.760;2023-03-18T04:54:51;16.65;;;8.60;;
69081;SDS011;56184;51.986;5.760;2023-03-18T04:57:16;21.27;;;9.02;;
69081;SDS011;56184;51.986;5.760;2023-03-18T04:59:43;16.30;;;8.98;;
69081;SDS011;56184;51.986;5.760;2023-03-18T05:02:09;18.77;;;9.10;;
69081;SDS011;56184;51.986;5.760;2023-03-18T05:04:34;19.55;;;9.07;;
69081;SDS011;56184;51.986;5.760;2023-03-18T05:07:03;15.93;;;8.90;;
69081;SDS011;56184;51.986;5.760;2023-03-18T05:09:29;21.05;;;9.13;;
69081;SDS011;56184;51.986;5.760;2023-03-18T05:11:55;15.18;;;9.48;;
69081;SDS011;56184;51.986;5.760;2023-03-18T05:14:21;16.80;;;9.05;;
69081;SDS011;56184;51.986;5.760;2023-03-18T05:16:47;13.30;;;8.43;;
69081;SDS011;56184;51.986;5.760;2023-03-18T05:19:13;20.33;;;9.60;;
69081;SDS011;56184;51.986;5.760;2023-03-18T05:21:39;20.83;;;9.45;;
69081;SDS011;56184;51.986;5.760;2023-03-18T05:24:06;16.73;;;8.95;;
69081;SDS011;56184;51.986;5.760;2023-03-18T05:26:34;15.85;;;9.77;;
69081;SDS011;56184;51.986;5.760;2023-03-18T05:29:00;24.15;;;10.35;;
69081;SDS011;56184;51.986;5.760;2023-03-18T05:31:26;21.23;;;8.70;;
69081;SDS011;56184;51.986;5.760;2023-03-18T05:33:51;19.27;;;10.02;;
69081;SDS011;56184;51.986;5.760;2023-03-18T05:36:17;20.38;;;9.13;;
69081;SDS011;56184;51.986;5.760;2023-03-18T05:38:43;17.58;;;8.63;;
69081;SDS011;56184;51.986;5.760;2023-03-18T05:41:08;18.42;;;9.40;;
69081;SDS011;56184;51.986;5.760;2023-03-18T05:43:34;22.02;;;10.02;;
69081;SDS011;56184;51.986;5.760;2023-03-18T05:45:59;21.75;;;10.20;;
69081;SDS011;56184;51.986;5.760;2023-03-18T05:48:25;21.00;;;10.95;;
69081;SDS011;56184;51.986;5.760;2023-03-18T05:50:51;15.48;;;10.23;;
69081;SDS011;56184;51.986;5.760;2023-03-18T05:53:17;20.95;;;10.48;;
69081;SDS011;56184;51.986;5.760;2023-03-18T05:55:43;21.75;;;10.55;;
69081;SDS011;56184;51.986;5.760;2023-03-18T05:58:09;16.50;;;9.38;;
69081;SDS011;56184;51.986;5.760;2023-03-18T06:00:35;22.02;;;10.80;;
69081;SDS011;56184;51.986;5.760;2023-03-18T06:03:01;19.55;;;10.52;;
69081;SDS011;56184;51.986;5.760;2023-03-18T06:05:27;18.17;;;10.45;;
69081;SDS011;56184;51.986;5.760;2023-03-18T06:07:53;21.90;;;11.35;;
69081;SDS011;56184;51.986;5.760;2023-03-18T06:10:20;22.65;;;10.77;;
69081;SDS011;56184;51.986;5.760;2023-03-18T06:12:47;21.73;;;10.95;;
69081;SDS011;56184;51.986;5.760;2023-03-18T06:15:13;20.48;;;10.50;;
69081;SDS011;56184;51.986;5.760;2023-03-18T06:17:39;19.13;;;9.90;;
69081;SDS011;56184;51.986;5.760;2023-03-18T06:20:06;20.13;;;10.80;;
69081;SDS011;56184;51.986;5.760;2023-03-18T06:22:33;18.30;;;9.80;;
69081;SDS011;56184;51.986;5.760;2023-03-18T06:24:59;25.17;;;11.50;;
69081;SDS011;56184;51.986;5.760;2023-03-18T06:27:26;15.60;;;9.90;;
69081;SDS011;56184;51.986;5.760;2023-03-18T06:29:52;20.80;;;11.07;;
69081;SDS011;56184;51.986;5.760;2023-03-18T06:32:18;24.23;;;12.18;;
69081;SDS011;56184;51.986;5.760;2023-03-18T06:34:43;22.65;;;11.93;;
69081;SDS011;56184;51.986;5.760;2023-03-18T06:37:09;20.75;;;11.80;;
69081;SDS011;56184;51.986;5.760;2023-03-18T06:39:38;20.77;;;12.23;;
69081;SDS011;56184;51.986;5.760;2023-03-18T06:42:03;21.75;;;11.95;;
69081;SDS011;56184;51.986;5.760;2023-03-18T06:44:29;17.20;;;10.18;;
69081;SDS011;56184;51.986;5.760;2023-03-18T06:46:55;20.30;;;11.05;;
69081;SDS011;56184;51.986;5.760;2023-03-18T06:49:21;17.88;;;10.32;;
69081;SDS011;56184;51.986;5.760;2023-03-18T06:51:47;24.33;;;11.90;;
69081;SDS011;56184;51.986;5.760;2023-03-18T06:54:13;22.55;;;11.20;;
69081;SDS011;56184;51.986;5.760;2023-03-18T06:56:39;21.45;;;11.65;;
69081;SDS011;56184;51.986;5.760;2023-03-18T06:59:06;28.33;;;12.02;;
69081;SDS011;56184;51.986;5.760;2023-03-18T07:01:33;19.95;;;11.68;;
69081;SDS011;56184;51.986;5.760;2023-03-18T07:04:00;27.77;;;12.15;;
69081;SDS011;56184;51.986;5.760;2023-03-18T07:06:27;17.52;;;11.48;;
69081;SDS011;56184;51.986;5.760;2023-03-18T07:08:54;17.83;;;10.90;;
69081;SDS011;56184;51.986;5.760;2023-03-18T07:11:20;19.00;;;10.93;;
69081;SDS011;56184;51.986;5.760;2023-03-18T07:13:49;18.05;;;11.45;;
69081;SDS011;56184;51.986;5.760;2023-03-18T07:16:16;22.40;;;12.00;;
69081;SDS011;56184;51.986;5.760;2023-03-18T07:18:42;20.83;;;11.77;;
69081;SDS011;56184;51.986;5.760;2023-03-18T07:21:08;23.45;;;11.95;;
69081;SDS011;56184;51.986;5.760;2023-03-18T07:23:35;21.38;;;12.15;;
69081;SDS011;56184;51.986;5.760;2023-03-18T07:26:01;17.88;;;11.10;;
69081;SDS011;56184;51.986;5.760;2023-03-18T07:28:27;13.52;;;9.65;;
69081;SDS011;56184;51.986;5.760;2023-03-18T07:30:53;23.95;;;11.10;;
69081;SDS011;56184;51.986;5.760;2023-03-18T07:33:18;17.38;;;10.65;;
69081;SDS011;56184;51.986;5.760;2023-03-18T07:35:44;19.10;;;11.90;;
69081;SDS011;56184;51.986;5.760;2023-03-18T07:38:10;21.20;;;10.27;;
69081;SDS011;56184;51.986;5.760;2023-03-18T07:40:36;18.67;;;11.70;;
69081;SDS011;56184;51.986;5.760;2023-03-18T07:43:03;19.08;;;12.10;;
69081;SDS011;56184;51.986;5.760;2023-03-18T07:45:29;20.65;;;12.02;;
69081;SDS011;56184;51.986;5.760;2023-03-18T07:47:54;20.50;;;11.65;;
69081;SDS011;56184;51.986;5.760;2023-03-18T07:50:20;19.90;;;11.15;;
69081;SDS011;56184;51.986;5.760;2023-03-18T07:52:46;16.45;;;10.27;;
69081;SDS011;56184;51.986;5.760;2023-03-18T07:55:12;17.25;;;10.82;;
69081;SDS011;56184;51.986;5.760;2023-03-18T07:57:38;14.15;;;9.73;;
69081;SDS011;56184;51.986;5.760;2023-03-18T08:00:05;21.75;;;11.27;;
69081;SDS011;56184;51.986;5.760;2023-03-18T08:02:32;16.58;;;10.77;;
69081;SDS011;56184;51.986;5.760;2023-03-18T08:05:03;19.02;;;9.68;;
69081;SDS011;56184;51.986;5.760;2023-03-18T08:07:31;17.08;;;10.30;;
69081;SDS011;56184;51.986;5.760;2023-03-18T08:10:00;16.23;;;9.25;;
69081;SDS011;56184;51.986;5.760;2023-03-18T08:12:26;14.57;;;8.55;;
69081;SDS011;56184;51.986;5.760;2023-03-18T08:14:52;15.18;;;8.80;;
69081;SDS011;56184;51.986;5.760;2023-03-18T08:17:18;12.65;;;8.25;;
69081;SDS011;56184;51.986;5.760;2023-03-18T08:19:44;13.75;;;8.73;;
69081;SDS011;56184;51.986;5.760;2023-03-18T08:22:11;15.25;;;8.27;;
69081;SDS011;56184;51.986;5.760;2023-03-18T08:24:36;14.65;;;8.52;;
69081;SDS011;56184;51.986;5.760;2023-03-18T08:27:03;11.70;;;7.95;;
69081;SDS011;56184;51.986;5.760;2023-03-18T08:29:29;13.35;;;7.82;;
69081;SDS011;56184;51.986;5.760;2023-03-18T08:31:56;14.32;;;7.40;;
69081;SDS011;56184;51.986;5.760;2023-03-18T08:34:22;12.60;;;7.53;;
69081;SDS011;56184;51.986;5.760;2023-03-18T08:36:48;14.15;;;7.35;;
69081;SDS011;56184;51.986;5.760;2023-03-18T08:39:14;13.52;;;7.75;;
69081;SDS011;56184;51.986;5.760;2023-03-18T08:41:40;13.77;;;7.97;;
69081;SDS011;56184;51.986;5.760;2023-03-18T08:44:06;15.23;;;8.07;;
69081;SDS011;56184;51.986;5.760;2023-03-18T08:46:34;13.18;;;7.50;;
69081;SDS011;56184;51.986;5.760;2023-03-18T08:48:59;13.80;;;7.50;;
69081;SDS011;56184;51.986;5.760;2023-03-18T08:51:26;11.27;;;7.90;;
69081;SDS011;56184;51.986;5.760;2023-03-18T08:53:53;12.77;;;8.48;;
69081;SDS011;56184;51.986;5.760;2023-03-18T08:56:19;12.45;;;7.45;;
69081;SDS011;56184;51.986;5.760;2023-03-18T08:58:44;13.88;;;7.88;;
69081;SDS011;56184;51.986;5.760;2023-03-18T09:01:12;12.02;;;7.50;;
69081;SDS011;56184;51.986;5.760;2023-03-18T09:03:38;13.15;;;7.03;;
69081;SDS011;56184;51.986;5.760;2023-03-18T09:06:03;14.93;;;8.35;;
69081;SDS011;56184;51.986;5.760;2023-03-18T09:08:29;9.90;;;7.22;;
69081;SDS011;56184;51.986;5.760;2023-03-18T09:10:57;10.35;;;7.70;;
69081;SDS011;56184;51.986;5.760;2023-03-18T09:13:23;10.15;;;6.68;;
69081;SDS011;56184;51.986;5.760;2023-03-18T09:15:49;12.65;;;7.38;;
69081;SDS011;56184;51.986;5.760;2023-03-18T09:18:16;10.75;;;7.07;;
69081;SDS011;56184;51.986;5.760;2023-03-18T09:20:43;11.13;;;6.47;;
69081;SDS011;56184;51.986;5.760;2023-03-18T09:23:10;11.20;;;6.85;;
69081;SDS011;56184;51.986;5.760;2023-03-18T09:25:38;11.80;;;6.43;;
69081;SDS011;56184;51.986;5.760;2023-03-18T09:28:06;11.77;;;6.35;;
69081;SDS011;56184;51.986;5.760;2023-03-18T09:30:32;8.35;;;6.35;;
69081;SDS011;56184;51.986;5.760;2023-03-18T09:32:59;11.05;;;6.28;;
69081;SDS011;56184;51.986;5.760;2023-03-18T09:35:26;9.13;;;6.20;;
69081;SDS011;56184;51.986;5.760;2023-03-18T09:37:55;9.57;;;5.85;;
69081;SDS011;56184;51.986;5.760;2023-03-18T09:40:26;10.77;;;5.80;;
69081;SDS011;56184;51.986;5.760;2023-03-18T09:51:25;9.00;;;5.78;;
69081;SDS011;56184;51.986;5.760;2023-03-18T09:53:58;9.60;;;5.68;;
69081;SDS011;56184;51.986;5.760;2023-03-18T09:56:29;11.02;;;6.10;;
69081;SDS011;56184;51.986;5.760;2023-03-18T09:59:05;9.43;;;6.40;;
69081;SDS011;56184;51.986;5.760;2023-03-18T10:01:44;10.05;;;5.43;;
69081;SDS011;56184;51.986;5.760;2023-03-18T10:04:18;15.68;;;7.15;;
69081;SDS011;56184;51.986;5.760;2023-03-18T10:06:48;9.52;;;6.20;;
69081;SDS011;56184;51.986;5.760;2023-03-18T10:09:19;8.68;;;6.03;;
69081;SDS011;56184;51.986;5.760;2023-03-18T10:12:06;6.47;;;4.80;;
69081;SDS011;56184;51.986;5.760;2023-03-18T10:14:48;8.20;;;5.75;;
69081;SDS011;56184;51.986;5.760;2023-03-18T10:17:40;9.15;;;6.18;;
69081;SDS011;56184;51.986;5.760;2023-03-18T10:25:57;7.38;;;5.25;;
69081;SDS011;56184;51.986;5.760;2023-03-18T10:34:01;8.10;;;5.10;;
69081;SDS011;56184;51.986;5.760;2023-03-18T10:36:49;7.80;;;4.80;;
69081;SDS011;56184;51.986;5.760;2023-03-18T10:39:27;7.55;;;4.78;;
69081;SDS011;56184;51.986;5.760;2023-03-18T10:41:55;6.97;;;4.65;;
69081;SDS011;56184;51.986;5.760;2023-03-18T10:44:29;8.13;;;4.68;;
69081;SDS011;56184;51.986;5.760;2023-03-18T10:47:10;6.15;;;4.50;;
69081;SDS011;56184;51.986;5.760;2023-03-18T10:54:47;8.07;;;4.63;;
69081;SDS011;56184;51.986;5.760;2023-03-18T10:57:16;7.20;;;4.38;;
69081;SDS011;56184;51.986;5.760;2023-03-18T10:59:44;5.47;;;3.55;;
69081;SDS011;56184;51.986;5.760;2023-03-18T11:02:31;6.40;;;4.00;;
69081;SDS011;56184;51.986;5.760;2023-03-18T11:07:56;7.15;;;3.60;;
69081;SDS011;56184;51.986;5.760;2023-03-18T11:10:36;5.85;;;3.67;;
69081;SDS011;56184;51.986;5.760;2023-03-18T11:13:12;5.10;;;2.88;;
69081;SDS011;56184;51.986;5.760;2023-03-18T11:15:44;6.07;;;3.53;;
69081;SDS011;56184;51.986;5.760;2023-03-18T11:18:16;7.20;;;3.22;;
69081;SDS011;56184;51.986;5.760;2023-03-18T11:20:57;5.88;;;3.20;;
69081;SDS011;56184;51.986;5.760;2023-03-18T11:23:35;8.02;;;3.70;;
69081;SDS011;56184;51.986;5.760;2023-03-18T11:26:36;5.93;;;3.10;;
69081;SDS011;56184;51.986;5.760;2023-03-18T11:29:29;6.78;;;2.97;;
69081;SDS011;56184;51.986;5.760;2023-03-18T11:31:59;5.75;;;3.00;;
69081;SDS011;56184;51.986;5.760;2023-03-18T11:34:26;6.68;;;2.90;;
69081;SDS011;56184;51.986;5.760;2023-03-18T11:36:58;8.65;;;2.95;;
69081;SDS011;56184;51.986;5.760;2023-03-18T11:39:37;5.53;;;2.70;;
69081;SDS011;56184;51.986;5.760;2023-03-18T11:42:17;6.47;;;2.50;;
69081;SDS011;56184;51.986;5.760;2023-03-18T11:44:46;7.30;;;3.00;;
69081;SDS011;56184;51.986;5.760;2023-03-18T11:47:24;5.63;;;2.90;;
69081;SDS011;56184;51.986;5.760;2023-03-18T11:49:54;4.60;;;2.50;;
69081;SDS011;56184;51.986;5.760;2023-03-18T11:57:49;4.20;;;2.63;;
69081;SDS011;56184;51.986;5.760;2023-03-18T12:00:35;5.45;;;2.30;;
69081;SDS011;56184;51.986;5.760;2023-03-18T12:03:33;4.10;;;2.30;;
69081;SDS011;56184;51.986;5.760;2023-03-18T12:06:27;6.80;;;2.60;;
69081;SDS011;56184;51.986;5.760;2023-03-18T12:27:54;4.57;;;3.00;;
69081;SDS011;56184;51.986;5.760;2023-03-18T12:30:36;5.78;;;2.90;;
69081;SDS011;56184;51.986;5.760;2023-03-18T12:36:35;5.28;;;2.58;;
69081;SDS011;56184;51.986;5.760;2023-03-18T12:42:09;4.83;;;2.67;;
69081;SDS011;56184;51.986;5.760;2023-03-18T12:44:43;3.72;;;2.30;;
69081;SDS011;56184;51.986;5.760;2023-03-18T12:47:19;4.65;;;2.63;;
69081;SDS011;56184;51.986;5.760;2023-03-18T12:49:56;4.70;;;2.42;;
69081;SDS011;56184;51.986;5.760;2023-03-18T12:52:35;5.38;;;2.70;;
69081;SDS011;56184;51.986;5.760;2023-03-18T13:03:10;9.18;;;2.92;;
69081;SDS011;56184;51.986;5.760;2023-03-18T13:05:52;6.68;;;3.00;;
69081;SDS011;56184;51.986;5.760;2023-03-18T13:08:40;8.20;;;3.30;;
69081;SDS011;56184;51.986;5.760;2023-03-18T13:13:58;4.78;;;3.30;;
69081;SDS011;56184;51.986;5.760;2023-03-18T13:18:56;4.47;;;2.83;;
69081;SDS011;56184;51.986;5.760;2023-03-18T13:21:25;5.28;;;2.90;;
69081;SDS011;56184;51.986;5.760;2023-03-18T13:41:05;7.05;;;1.73;;
69081;SDS011;56184;51.986;5.760;2023-03-18T13:43:50;4.45;;;1.70;;
69081;SDS011;56184;51.986;5.760;2023-03-18T13:46:21;8.70;;;2.13;;
69081;SDS011;56184;51.986;5.760;2023-03-18T13:48:58;7.00;;;1.83;;
69081;SDS011;56184;51.986;5.760;2023-03-18T13:53:53;6.00;;;1.92;;
69081;SDS011;56184;51.986;5.760;2023-03-18T13:59:01;5.93;;;2.20;;
69081;SDS011;56184;51.986;5.760;2023-03-18T14:01:34;5.63;;;1.98;;
69081;SDS011;56184;51.986;5.760;2023-03-18T14:06:55;8.02;;;2.28;;
69081;SDS011;56184;51.986;5.760;2023-03-18T14:10:23;9.68;;;3.03;;
69081;SDS011;56184;51.986;5.760;2023-03-18T14:12:41;8.85;;;3.70;;
69081;SDS011;56184;51.986;5.760;2023-03-18T14:20:14;6.20;;;1.85;;
69081;SDS011;56184;51.986;5.760;2023-03-18T14:22:50;6.88;;;2.15;;
69081;SDS011;56184;51.986;5.760;2023-03-18T14:25:22;5.20;;;1.95;;
69081;SDS011;56184;51.986;5.760;2023-03-18T14:32:59;8.80;;;2.55;;
69081;SDS011;56184;51.986;5.760;2023-03-18T14:35:33;7.30;;;2.50;;
69081;SDS011;56184;51.986;5.760;2023-03-18T14:38:19;5.57;;;2.60;;
69081;SDS011;56184;51.986;5.760;2023-03-18T14:40:49;8.27;;;2.50;;
69081;SDS011;56184;51.986;5.760;2023-03-18T14:43:26;6.28;;;2.35;;
69081;SDS011;56184;51.986;5.760;2023-03-18T14:46:01;6.85;;;1.90;;
69081;SDS011;56184;51.986;5.760;2023-03-18T14:48:32;4.05;;;1.60;;
69081;SDS011;56184;51.986;5.760;2023-03-18T14:51:03;3.50;;;1.40;;
69081;SDS011;56184;51.986;5.760;2023-03-18T14:56:34;3.63;;;1.30;;
69081;SDS011;56184;51.986;5.760;2023-03-18T14:59:04;5.53;;;1.38;;
69081;SDS011;56184;51.986;5.760;2023-03-18T15:01:37;3.13;;;1.30;;
69081;SDS011;56184;51.986;5.760;2023-03-18T15:04:04;2.13;;;1.30;;
69081;SDS011;56184;51.986;5.760;2023-03-18T15:06:35;4.50;;;1.13;;
69081;SDS011;56184;51.986;5.760;2023-03-18T15:09:05;3.80;;;1.00;;
69081;SDS011;56184;51.986;5.760;2023-03-18T15:11:37;3.08;;;1.13;;
69081;SDS011;56184;51.986;5.760;2023-03-18T15:14:10;3.50;;;1.20;;
69081;SDS011;56184;51.986;5.760;2023-03-18T15:17:00;2.40;;;1.15;;
69081;SDS011;56184;51.986;5.760;2023-03-18T15:19:28;3.03;;;1.13;;
69081;SDS011;56184;51.986;5.760;2023-03-18T15:21:56;2.08;;;1.05;;
69081;SDS011;56184;51.986;5.760;2023-03-18T15:24:28;1.83;;;1.23;;
69081;SDS011;56184;51.986;5.760;2023-03-18T15:26:58;3.13;;;1.25;;
69081;SDS011;56184;51.986;5.760;2023-03-18T15:29:30;3.92;;;1.50;;
69081;SDS011;56184;51.986;5.760;2023-03-18T15:34:43;4.68;;;1.70;;
69081;SDS011;56184;51.986;5.760;2023-03-18T15:46:16;3.92;;;1.80;;
69081;SDS011;56184;51.986;5.760;2023-03-18T15:51:22;5.40;;;1.70;;
69081;SDS011;56184;51.986;5.760;2023-03-18T15:54:05;4.07;;;1.50;;
69081;SDS011;56184;51.986;5.760;2023-03-18T15:56:42;2.13;;;1.10;;
69081;SDS011;56184;51.986;5.760;2023-03-18T15:59:14;1.98;;;1.30;;
69081;SDS011;56184;51.986;5.760;2023-03-18T16:01:44;4.25;;;1.40;;
69081;SDS011;56184;51.986;5.760;2023-03-18T16:04:12;2.80;;;1.15;;
69081;SDS011;56184;51.986;5.760;2023-03-18T16:06:40;4.05;;;1.35;;
69081;SDS011;56184;51.986;5.760;2023-03-18T16:11:38;1.13;;;1.00;;
69081;SDS011;56184;51.986;5.760;2023-03-18T16:14:04;2.83;;;1.20;;
69081;SDS011;56184;51.986;5.760;2023-03-18T16:16:30;1.90;;;1.00;;
69081;SDS011;56184;51.986;5.760;2023-03-18T16:18:57;2.70;;;1.20;;
69081;SDS011;56184;51.986;5.760;2023-03-18T16:21:23;3.05;;;1.30;;
69081;SDS011;56184;51.986;5.760;2023-03-18T16:23:52;1.63;;;1.10;;
69081;SDS011;56184;51.986;5.760;2023-03-18T16:26:18;2.47;;;1.10;;
69081;SDS011;56184;51.986;5.760;2023-03-18T16:28:44;3.33;;;1.10;;
69081;SDS011;56184;51.986;5.760;2023-03-18T16:31:12;2.60;;;1.20;;
69081;SDS011;56184;51.986;5.760;2023-03-18T16:33:38;2.53;;;1.17;;
69081;SDS011;56184;51.986;5.760;2023-03-18T16:36:06;3.50;;;1.17;;
69081;SDS011;56184;51.986;5.760;2023-03-18T16:38:40;3.33;;;1.13;;
69081;SDS011;56184;51.986;5.760;2023-03-18T16:41:06;2.47;;;1.00;;
69081;SDS011;56184;51.986;5.760;2023-03-18T16:43:33;3.75;;;1.20;;
69081;SDS011;56184;51.986;5.760;2023-03-18T16:45:59;1.73;;;1.10;;
69081;SDS011;56184;51.986;5.760;2023-03-18T16:48:29;2.30;;;1.20;;
69081;SDS011;56184;51.986;5.760;2023-03-18T16:50:55;2.47;;;1.13;;
69081;SDS011;56184;51.986;5.760;2023-03-18T16:53:26;4.22;;;1.40;;
69081;SDS011;56184;51.986;5.760;2023-03-18T16:55:54;2.67;;;1.60;;
69081;SDS011;56184;51.986;5.760;2023-03-18T16:58:31;2.53;;;1.67;;
69081;SDS011;56184;51.986;5.760;2023-03-18T17:00:59;2.92;;;1.35;;
69081;SDS011;56184;51.986;5.760;2023-03-18T17:03:25;5.43;;;1.35;;
69081;SDS011;56184;51.986;5.760;2023-03-18T17:05:51;2.85;;;1.33;;